Time;durP1;ratioP1;P1;durP2;ratioP2;P2;SDS_P1;SDS_P2;PMS_P1;PMS_P2;Temp;Humidity;BMP_temperature;BMP_pressure;BME280_temperature;BME280_humidity;BME280_pressure;Samples;Min_cycle;Max_cycle;Signal;HPM_P1;HPM_P2
2022/09/22 00:00:35;;;;;;;10.17;9.47;;;;;;;-142.65;88.10;50170.78;5113688;28;20196;-70
2022/09/22 00:03:02;;;;;;;10.93;9.87;;;;;;;-142.65;88.25;50182.72;5113704;28;20213;-71
2022/09/22 00:05:28;;;;;;;11.60;9.13;;;;;;;-142.65;88.35;50170.78;5113688;28;20181;-71
2022/09/22 00:07:55;;;;;;;15.53;10.17;;;;;;;-142.65;88.47;50176.75;5113612;28;20195;-71
2022/09/22 00:10:21;;;;;;;10.40;9.67;;;;;;;-142.65;88.56;50174.75;5113471;28;20693;-72
2022/09/22 00:12:48;;;;;;;10.20;9.50;;;;;;;-142.65;88.70;50174.75;5113517;28;20192;-72
2022/09/22 00:15:16;;;;;;;10.60;9.80;;;;;;;-142.65;88.71;50176.75;5113598;28;20184;-72
2022/09/22 00:17:43;;;;;;;11.37;9.33;;;;;;;-142.65;88.75;50180.75;5113436;28;20212;-71
2022/09/22 00:20:12;;;;;;;10.70;9.60;;;;;;;-142.65;88.74;50178.75;5116718;28;20191;-71
2022/09/22 00:22:39;;;;;;;12.20;10.07;;;;;;;-142.65;88.74;50172.78;5117726;28;20188;-71
2022/09/22 00:25:07;;;;;;;10.83;9.83;;;;;;;;;;5118031;28;20204;-71
2022/09/22 00:27:34;;;;;;;12.13;9.53;;;;;;;-142.65;88.65;50168.78;5117665;28;20177;-71
2022/09/22 00:30:00;;;;;;;10.03;9.37;;;;;;;-142.65;88.71;50180.75;5117533;28;20224;-71
2022/09/22 00:32:27;;;;;;;10.67;9.97;;;;;;;-142.65;88.67;50182.72;5117568;28;20192;-71
2022/09/22 00:34:53;;;;;;;10.33;9.47;;;;;;;-142.65;88.76;50180.75;5117547;28;20186;-71
2022/09/22 00:37:19;;;;;;;10.70;9.80;;;;;;;;;;5117683;28;20211;-71
2022/09/22 00:39:46;;;;;;;11.03;10.23;;;;;;;-142.65;88.93;50172.78;5117359;28;20210;-71
2022/09/22 00:42:12;;;;;;;11.70;10.70;;;;;;;-142.65;89.02;50178.75;5117416;28;20578;-72
2022/09/22 00:44:39;;;;;;;12.17;11.13;;;;;;;-142.65;89.12;50170.78;5117326;28;20189;-72
2022/09/22 00:47:29;;;;;;;12.07;10.87;;;;;;;-142.65;89.05;50178.75;5117591;28;20528;-72
2022/09/22 00:50:13;;;;;;;12.40;11.27;;;;;;;-142.65;89.03;50180.75;5117504;28;20205;-71
2022/09/22 00:52:49;;;;;;;11.67;10.53;;;;;;;-142.65;89.20;50164.81;5117226;28;20180;-71
2022/09/22 00:55:23;;;;;;;10.50;9.63;;;;;;;-142.65;89.25;50172.78;5117449;28;20169;-71
2022/09/22 00:57:52;;;;;;;11.10;10.13;;;;;;;-142.65;89.22;50178.75;5117228;28;20196;-71
2022/09/22 01:00:19;;;;;;;11.67;10.77;;;;;;;-142.65;89.28;50176.75;5116994;28;20700;-71
2022/09/22 01:02:53;;;;;;;14.63;10.27;;;;;;;-142.65;89.31;50178.75;5117009;28;20193;-72
2022/09/22 01:05:22;;;;;;;11.00;10.00;;;;;;;-142.65;89.39;50168.78;5116957;28;20182;-71
2022/09/22 01:07:48;;;;;;;10.40;9.63;;;;;;;;;;5117641;28;20515;-70
2022/09/22 01:10:16;;;;;;;10.63;10.07;;;;;;;-142.65;89.47;50178.75;5116835;28;20683;-70
2022/09/22 01:12:57;;;;;;;11.10;10.30;;;;;;;-142.65;89.44;50178.75;5115596;28;20190;-70
2022/09/22 01:15:36;;;;;;;13.47;10.33;;;;;;;-142.65;89.56;50178.75;5115835;28;20177;-71
2022/09/22 01:18:20;;;;;;;11.13;10.43;;;;;;;-142.65;89.52;50170.78;5115587;28;20223;-71
2022/09/22 01:21:12;;;;;;;11.43;10.40;;;;;;;-142.65;89.67;50172.78;5115730;28;20181;-71
2022/09/22 01:23:51;;;;;;;11.03;10.23;;;;;;;-142.65;89.56;50176.75;5115710;28;20200;-71
2022/09/22 01:26:29;;;;;;;11.10;9.93;;;;;;;-142.65;89.59;50180.75;5115717;28;20257;-71
2022/09/22 01:29:34;;;;;;;11.23;10.10;;;;;;;-142.65;89.53;50170.78;5115845;28;20210;-71
2022/09/22 01:32:28;;;;;;;13.07;11.17;;;;;;;-142.65;89.60;50172.78;5101580;28;20193;-72
2022/09/22 01:35:10;;;;;;;12.03;11.00;;;;;;;-142.65;89.58;50178.75;5115812;28;20552;-72
2022/09/22 01:38:07;;;;;;;10.80;10.00;;;;;;;-142.65;89.63;50164.81;5115157;28;20215;-72
2022/09/22 01:40:46;;;;;;;11.97;10.53;;;;;;;-142.65;89.70;50178.75;5115433;28;20176;-71
2022/09/22 01:43:34;;;;;;;14.13;11.73;;;;;;;-142.65;89.67;50176.75;5115391;28;20171;-71
2022/09/22 01:46:04;;;;;;;11.57;10.40;;;;;;;;;;5115352;28;20537;-71
2022/09/22 01:48:34;;;;;;;11.13;10.17;;;;;;;-142.65;89.70;50180.75;5114884;28;20296;-71
2022/09/22 01:51:09;;;;;;;10.40;9.67;;;;;;;-142.65;89.75;50172.78;5114909;28;20197;-71
2022/09/22 01:53:44;;;;;;;12.70;11.50;;;;;;;-142.65;89.82;50178.75;5114950;28;20555;-71
2022/09/22 01:56:13;;;;;;;12.47;11.23;;;;;;;-142.65;89.74;50174.75;5115163;28;20558;-71
2022/09/22 01:58:52;;;;;;;12.23;11.07;;;;;;;-142.65;89.73;50178.75;5114814;28;20702;-71
2022/09/22 02:01:24;;;;;;;10.53;9.80;;;;;;;-142.65;89.83;50178.75;5115088;28;20177;-71
2022/09/22 02:04:01;;;;;;;11.47;10.67;;;;;;;-142.65;89.80;50180.75;5115044;28;20227;-71
2022/09/22 02:06:36;;;;;;;11.30;10.30;;;;;;;-142.65;89.90;50176.75;5115008;28;20577;-71
2022/09/22 02:09:09;;;;;;;11.67;10.67;;;;;;;-142.65;89.98;50170.78;5114881;28;20212;-71
2022/09/22 02:11:35;;;;;;;12.27;11.37;;;;;;;-142.65;90.03;50178.75;5115493;28;20193;-71
2022/09/22 02:14:03;;;;;;;12.53;11.33;;;;;;;-142.65;90.09;50178.75;5115618;28;20194;-71
2022/09/22 02:16:30;;;;;;;12.30;11.10;;;;;;;-142.65;90.08;50178.75;5115590;28;20546;-71
2022/09/22 02:19:10;;;;;;;11.27;10.57;;;;;;;-142.65;90.16;50178.75;5115839;28;20575;-70
2022/09/22 02:21:41;;;;;;;11.67;10.97;;;;;;;-142.65;90.08;50170.78;5115780;28;20570;-70
2022/09/22 02:24:27;;;;;;;12.00;11.10;;;;;;;-142.65;90.07;50176.75;5115978;28;20195;-71
2022/09/22 02:26:56;;;;;;;12.73;11.53;;;;;;;-142.65;89.91;50172.78;5115972;28;20177;-71
2022/09/22 02:29:24;;;;;;;14.17;12.83;;;;;;;-142.65;89.84;50170.78;5115252;28;20209;-71
2022/09/22 02:31:52;;;;;;;11.47;10.57;;;;;;;-142.65;89.92;50178.75;5115242;28;20188;-71
2022/09/22 02:34:18;;;;;;;11.97;10.83;;;;;;;-142.65;89.90;50180.75;5115515;28;20189;-71
2022/09/22 02:37:04;;;;;;;10.90;10.20;;;;;;;-142.65;89.95;50176.75;5115392;28;20194;-71
2022/09/22 02:39:52;;;;;;;12.03;10.97;;;;;;;-142.65;89.92;50170.78;5115010;28;20628;-71
2022/09/22 02:42:41;;;;;;;12.30;10.60;;;;;;;-142.65;89.95;50178.75;5114575;28;20184;-71
2022/09/22 02:45:13;;;;;;;12.37;11.27;;;;;;;-142.65;89.85;50180.75;5115354;28;20174;-71
2022/09/22 02:48:14;;;;;;;19.90;11.53;;;;;;;-142.65;90.01;50172.78;5114970;28;20670;-71
2022/09/22 02:50:41;;;;;;;11.70;10.57;;;;;;;-142.65;89.97;50178.75;5108694;28;20566;-71
2022/09/22 02:53:13;;;;;;;13.37;11.20;;;;;;;-142.65;90.10;50180.75;5114837;28;20720;-71
2022/09/22 02:55:40;;;;;;;14.33;10.87;;;;;;;;;;5114767;28;20204;-71
2022/09/22 02:58:07;;;;;;;14.80;13.37;;;;;;;-142.65;90.15;50178.75;5114599;28;20705;-71
2022/09/22 03:00:33;;;;;;;15.57;14.00;;;;;;;-142.65;90.08;50178.75;5114971;28;20650;-71
2022/09/22 03:03:00;;;;;;;12.77;11.70;;;;;;;;;;5115020;28;20566;-71
2022/09/22 03:05:26;;;;;;;12.77;11.50;;;;;;;-142.65;90.21;50176.75;5114623;28;20185;-71
2022/09/22 03:07:52;;;;;;;13.20;12.00;;;;;;;-142.65;90.12;50176.75;5114499;28;20187;-71
2022/09/22 03:10:19;;;;;;;11.73;10.53;;;;;;;-142.65;90.10;50178.75;5114486;28;20196;-71
2022/09/22 03:12:45;;;;;;;11.70;10.80;;;;;;;-142.65;90.23;50182.72;5114414;28;20189;-71
2022/09/22 03:15:31;;;;;;;14.37;10.63;;;;;;;-142.65;90.18;50178.75;5114453;28;20173;-71
2022/09/22 03:17:58;;;;;;;14.33;12.93;;;;;;;-142.65;90.07;50176.75;5114343;28;20262;-70
2022/09/22 03:20:24;;;;;;;12.60;11.50;;;;;;;-142.65;90.09;50178.75;5114216;28;20192;-70
2022/09/22 03:22:51;;;;;;;13.07;11.93;;;;;;;-142.65;90.04;50178.75;5114253;28;20185;-71
2022/09/22 03:25:17;;;;;;;12.00;10.90;;;;;;;-142.65;90.09;50170.78;5114514;28;20189;-71
2022/09/22 03:27:44;;;;;;;11.57;10.67;;;;;;;-142.65;90.14;50170.78;5114121;28;20519;-70
2022/09/22 03:30:11;;;;;;;13.87;11.73;;;;;;;-142.65;90.19;50180.75;5114139;28;20196;-70
2022/09/22 03:32:37;;;;;;;14.03;12.70;;;;;;;;;;5114621;28;20181;-70
2022/09/22 03:35:04;;;;;;;12.30;11.23;;;;;;;-142.65;90.23;50174.75;5114323;28;20196;-70
2022/09/22 03:37:32;;;;;;;13.77;12.47;;;;;;;-142.65;90.28;50176.75;5113944;28;20210;-71
2022/09/22 03:39:58;;;;;;;12.70;11.73;;;;;;;-142.65;90.37;50178.75;5114217;28;20205;-71
2022/09/22 03:42:25;;;;;;;10.93;9.93;;;;;;;-142.65;90.23;50176.75;5114268;28;20185;-71
2022/09/22 03:44:51;;;;;;;11.63;10.83;;;;;;;-142.65;90.23;50178.75;5114468;28;20197;-71
2022/09/22 03:47:18;;;;;;;12.50;11.40;;;;;;;-142.65;90.33;50170.78;5113878;28;20187;-71
2022/09/22 03:49:45;;;;;;;13.50;11.20;;;;;;;-142.65;90.28;50172.78;5113785;28;20721;-71
2022/09/22 03:52:11;;;;;;;13.53;11.90;;;;;;;-142.65;90.30;50176.75;5113820;28;20189;-71
2022/09/22 03:54:38;;;;;;;12.93;11.60;;;;;;;-142.65;90.36;50176.75;5113684;28;20193;-71
2022/09/22 03:57:05;;;;;;;11.43;10.60;;;;;;;-142.65;90.36;50178.75;5113798;28;20185;-71
2022/09/22 03:59:31;;;;;;;17.77;12.73;;;;;;;-142.65;90.39;50176.75;5113621;28;20216;-71
2022/09/22 04:01:59;;;;;;;12.63;11.63;;;;;;;-142.65;90.45;50178.75;5113752;28;20187;-71
2022/09/22 04:04:26;;;;;;;12.43;11.33;;;;;;;-142.65;90.60;50174.75;5114047;28;20181;-71
2022/09/22 04:06:53;;;;;;;12.63;10.50;;;;;;;-142.65;90.51;50176.75;5114025;28;20563;-71
2022/09/22 04:09:19;;;;;;;13.63;12.20;;;;;;;-142.65;90.60;50180.75;5113878;28;20223;-71
2022/09/22 04:11:45;;;;;;;13.07;11.77;;;;;;;-142.65;90.37;50176.75;5113497;28;20600;-71
2022/09/22 04:14:12;;;;;;;12.93;11.70;;;;;;;-142.65;90.67;50178.75;5113845;28;20650;-71
2022/09/22 04:16:41;;;;;;;12.03;10.97;;;;;;;-142.65;90.64;50174.75;5113619;28;20209;-71
2022/09/22 04:19:09;;;;;;;15.97;12.63;;;;;;;-142.65;90.75;50178.75;5113687;28;20299;-70
2022/09/22 04:21:35;;;;;;;12.47;11.27;;;;;;;-142.65;90.78;50178.75;5113811;28;20209;-70
2022/09/22 04:24:02;;;;;;;13.13;11.90;;;;;;;-142.65;90.85;50178.75;5113479;28;20196;-72
2022/09/22 04:26:28;;;;;;;11.77;10.77;;;;;;;-142.65;90.82;50180.75;5113482;28;20238;-72
2022/09/22 04:28:55;;;;;;;13.07;11.93;;;;;;;-142.65;90.90;50182.72;5113403;28;20204;-72
2022/09/22 04:31:21;;;;;;;11.80;10.60;;;;;;;-142.65;90.94;50172.78;5114025;28;20644;-72
2022/09/22 04:33:48;;;;;;;12.93;11.73;;;;;;;-142.65;91.09;50172.78;5114000;28;20188;-72
2022/09/22 04:36:14;;;;;;;14.37;12.07;;;;;;;-142.65;90.87;50174.75;5113693;28;20189;-72
2022/09/22 04:38:41;;;;;;;14.20;12.60;;;;;;;-142.65;90.84;50178.75;5113233;28;20221;-71
2022/09/22 04:41:07;;;;;;;11.70;10.77;;;;;;;-142.65;90.87;50178.75;5113400;28;20228;-71
2022/09/22 04:43:33;;;;;;;14.43;10.67;;;;;;;-142.65;91.06;50178.75;5113557;28;20184;-71
2022/09/22 04:46:00;;;;;;;17.67;12.70;;;;;;;-142.65;91.00;50170.78;5113606;28;20185;-71
2022/09/22 04:48:26;;;;;;;12.83;11.83;;;;;;;-142.65;90.95;50170.78;5113217;28;20254;-71
2022/09/22 04:50:53;;;;;;;13.00;11.87;;;;;;;-142.65;90.99;50168.78;5113276;28;20185;-71
2022/09/22 04:53:19;;;;;;;10.77;10.20;;;;;;;-142.65;91.00;50180.75;5113341;28;20208;-72
2022/09/22 04:55:48;;;;;;;12.67;10.77;;;;;;;-142.65;91.11;50178.75;5113742;28;20188;-72
2022/09/22 04:58:14;;;;;;;13.23;11.87;;;;;;;-142.65;91.08;50182.72;5113321;28;20296;-71
2022/09/22 05:00:41;;;;;;;12.57;11.47;;;;;;;-142.65;91.11;50174.75;5113756;28;20193;-71
2022/09/22 05:03:09;;;;;;;10.53;9.73;;;;;;;-142.65;91.14;50170.78;5113097;28;20199;-71
2022/09/22 05:05:36;;;;;;;10.53;9.90;;;;;;;-142.65;91.20;50178.75;5115070;28;20543;-71
2022/09/22 05:08:02;;;;;;;11.63;10.53;;;;;;;-142.65;91.13;50178.75;5117296;28;20185;-71
2022/09/22 05:10:31;;;;;;;10.70;9.97;;;;;;;-142.65;91.21;50178.75;5117195;28;20169;-71
2022/09/22 05:12:57;;;;;;;11.53;10.47;;;;;;;-142.65;91.27;50176.75;5116747;28;20208;-71
2022/09/22 05:15:24;;;;;;;12.00;10.90;;;;;;;-142.65;91.16;50178.75;5116752;28;20213;-71
2022/09/22 05:17:52;;;;;;;10.50;9.77;;;;;;;-142.65;91.11;50172.78;5116592;28;20532;-71
2022/09/22 05:20:20;;;;;;;11.77;10.77;;;;;;;-142.65;91.16;50178.75;5116600;28;20187;-71
2022/09/22 05:22:47;;;;;;;15.33;12.37;;;;;;;-142.65;91.20;50178.75;5117438;28;20534;-71
2022/09/22 05:25:16;;;;;;;11.87;11.03;;;;;;;-142.65;91.22;50176.75;5116553;28;20192;-71
2022/09/22 05:27:47;;;;;;;11.40;10.50;;;;;;;-142.65;91.22;50174.75;5116555;28;20185;-71
2022/09/22 05:30:14;;;;;;;12.03;10.90;;;;;;;-142.65;91.28;50178.75;5116430;28;20565;-71
2022/09/22 05:32:45;;;;;;;11.17;10.37;;;;;;;-142.65;91.31;50174.75;5116591;28;20185;-72
2022/09/22 05:35:20;;;;;;;16.97;12.43;;;;;;;-142.65;91.30;50172.78;5116949;28;20181;-72
2022/09/22 05:37:48;;;;;;;14.33;12.20;;;;;;;-142.65;91.30;50176.75;5116168;28;20207;-71
2022/09/22 05:40:15;;;;;;;13.53;12.33;;;;;;;-142.65;91.36;50178.75;5116294;28;20181;-71
2022/09/22 05:42:44;;;;;;;16.73;13.33;;;;;;;-142.65;91.49;50178.75;5116779;28;20210;-71
2022/09/22 05:45:11;;;;;;;13.40;11.93;;;;;;;-142.65;91.55;50178.75;5116105;28;20185;-71
2022/09/22 05:47:39;;;;;;;13.37;12.00;;;;;;;-142.65;91.48;50172.78;5116144;28;20667;-71
2022/09/22 05:50:06;;;;;;;12.10;11.10;;;;;;;-142.65;91.60;50176.75;5116099;28;20212;-71
2022/09/22 05:52:33;;;;;;;15.07;12.10;;;;;;;-142.65;91.58;50170.78;5115873;28;20190;-72
2022/09/22 05:55:00;;;;;;;13.57;12.23;;;;;;;-142.65;91.60;50178.75;5116052;28;20181;-72
2022/09/22 05:57:26;;;;;;;11.37;10.57;;;;;;;-142.65;91.61;50170.78;5116273;28;20542;-72
2022/09/22 05:59:53;;;;;;;11.73;10.80;;;;;;;-142.65;91.68;50178.75;5115799;28;20217;-72
2022/09/22 06:02:20;;;;;;;11.80;10.77;;;;;;;-142.65;91.72;50170.78;5116066;28;20189;-72
2022/09/22 06:04:52;;;;;;;11.67;10.57;;;;;;;-142.65;91.81;50172.78;5115846;28;20181;-71
2022/09/22 06:07:22;;;;;;;14.80;12.20;;;;;;;-142.65;91.88;50174.75;5116040;28;20555;-71
2022/09/22 06:09:49;;;;;;;15.27;12.23;;;;;;;-142.65;91.92;50178.75;5115853;28;20552;-71
2022/09/22 06:12:17;;;;;;;11.17;10.27;;;;;;;-142.65;91.98;50170.78;5115577;28;20189;-71
2022/09/22 06:14:43;;;;;;;13.67;12.27;;;;;;;-142.65;92.10;50174.75;5097329;28;20199;-71
2022/09/22 06:17:11;;;;;;;20.83;13.20;;;;;;;-142.65;92.19;50174.75;5114317;28;20189;-71
2022/09/22 06:19:38;;;;;;;15.30;12.43;;;;;;;-142.65;92.32;50174.75;5115443;28;20598;-71
2022/09/22 06:22:04;;;;;;;13.37;12.10;;;;;;;-142.65;92.44;50178.75;5115698;28;20189;-71
2022/09/22 06:24:31;;;;;;;15.33;13.17;;;;;;;-142.65;92.57;50170.78;5115525;28;20184;-72
2022/09/22 06:26:57;;;;;;;16.37;12.23;;;;;;;-142.65;92.57;50170.78;5115965;28;20193;-71
2022/09/22 06:29:25;;;;;;;13.63;12.00;;;;;;;-142.65;92.51;50168.78;5115285;28;20213;-70
2022/09/22 06:31:52;;;;;;;14.13;12.70;;;;;;;-142.65;92.52;50180.75;5115550;28;20189;-70
2022/09/22 06:34:18;;;;;;;15.73;11.90;;;;;;;-142.65;92.47;50182.72;5115226;28;20177;-71
2022/09/22 06:36:44;;;;;;;16.73;12.23;;;;;;;-142.65;92.62;50164.81;5116003;28;20636;-71
2022/09/22 06:39:11;;;;;;;14.37;12.30;;;;;;;-142.65;92.79;50178.75;5115012;28;20694;-71
2022/09/22 06:41:38;;;;;;;14.07;12.60;;;;;;;-142.65;93.08;50170.78;5115662;28;20211;-71
2022/09/22 06:44:09;;;;;;;15.80;12.57;;;;;;;-142.65;93.24;50174.75;5114594;28;20194;-71
2022/09/22 06:46:36;;;;;;;19.90;12.67;;;;;;;-142.65;93.40;50182.72;5115129;28;20193;-71
2022/09/22 06:49:03;;;;;;;15.43;12.70;;;;;;;-142.65;93.35;50170.78;5115121;28;20201;-71
2022/09/22 06:51:32;;;;;;;15.27;13.83;;;;;;;-142.65;93.36;50168.78;5114892;28;20193;-71
2022/09/22 06:54:02;;;;;;;25.70;13.47;;;;;;;-142.65;93.34;50178.75;5115128;28;20181;-71
2022/09/22 06:56:30;;;;;;;15.70;13.80;;;;;;;;;;5115217;28;20539;-71
2022/09/22 06:59:01;;;;;;;14.23;12.73;;;;;;;-142.65;93.17;50170.78;5114791;28;20201;-72
2022/09/22 07:01:36;;;;;;;20.93;13.57;;;;;;;-142.65;92.89;50162.81;5115092;28;20175;-72
2022/09/22 07:04:03;;;;;;;19.97;13.30;;;;;;;-142.65;92.74;50172.78;5115210;28;20226;-72
2022/09/22 07:06:30;;;;;;;16.87;13.00;;;;;;;-142.65;92.62;50168.78;5114624;28;20191;-72
2022/09/22 07:08:56;;;;;;;25.13;13.87;;;;;;;-142.65;92.42;50172.78;5114494;28;20208;-71
2022/09/22 07:11:23;;;;;;;13.57;12.23;;;;;;;-142.65;92.23;50174.75;5114494;28;20187;-71
2022/09/22 07:13:52;;;;;;;28.10;13.13;;;;;;;-142.65;92.05;50174.75;5114411;28;20194;-71
2022/09/22 07:16:19;;;;;;;14.60;12.70;;;;;;;;;;5114401;28;20279;-71
2022/09/22 07:18:51;;;;;;;15.77;13.50;;;;;;;-142.65;91.87;50172.78;5114180;28;20212;-71
2022/09/22 07:21:23;;;;;;;25.60;13.47;;;;;;;-142.65;91.56;50178.75;5114546;28;20623;-71
2022/09/22 07:23:53;;;;;;;14.27;12.87;;;;;;;-142.65;91.17;50170.78;5114484;28;20174;-71
2022/09/22 07:26:27;;;;;;;25.00;14.47;;;;;;;-142.65;90.65;50174.75;5114533;28;20183;-71
2022/09/22 07:28:54;;;;;;;19.70;11.70;;;;;;;;;;5114387;28;20201;-71
2022/09/22 07:31:22;;;;;;;13.87;12.50;;;;;;;;;;5114376;28;20172;-71
2022/09/22 07:33:54;;;;;;;13.57;11.97;;;;;;;-142.65;89.50;50170.78;5114702;28;20181;-72
2022/09/22 07:36:22;;;;;;;12.17;11.10;;;;;;;;;;5114428;28;20191;-72
2022/09/22 07:38:50;;;;;;;15.07;11.00;;;;;;;-142.65;89.21;50168.78;5114591;28;20205;-72
2022/09/22 07:41:22;;;;;;;10.73;10.03;;;;;;;-142.65;88.20;50170.78;5114255;28;20192;-72
2022/09/22 07:43:55;;;;;;;11.93;10.73;;;;;;;-142.65;87.42;50178.75;5114278;28;20185;-72
2022/09/22 07:46:22;;;;;;;17.40;10.23;;;;;;;-142.65;86.87;50164.81;5114333;28;20176;-72
2022/09/22 07:48:48;;;;;;;12.03;11.23;;;;;;;-142.65;86.90;50174.75;5113827;28;20209;-71
2022/09/22 07:51:19;;;;;;;18.07;10.07;;;;;;;;;;5114378;28;20187;-72
2022/09/22 07:53:48;;;;;;;13.07;9.90;;;;;;;-142.65;85.71;50174.75;5114480;28;20642;-72
2022/09/22 07:56:17;;;;;;;14.17;10.40;;;;;;;-142.65;84.92;50170.78;5114107;28;20497;-73
2022/09/22 07:59:07;;;;;;;10.50;9.60;;;;;;;-142.65;83.65;50170.78;5113973;28;20206;-71
2022/09/22 08:01:34;;;;;;;12.30;9.17;;;;;;;;;;5114077;28;20181;-72
2022/09/22 08:04:00;;;;;;;17.90;9.20;;;;;;;-142.65;82.83;50164.81;5113688;28;20200;-72
2022/09/22 08:06:27;;;;;;;10.87;9.30;;;;;;;-142.65;83.30;50170.78;5113705;28;20181;-72
2022/09/22 08:08:55;;;;;;;9.23;8.50;;;;;;;;;;5113605;28;20203;-72
2022/09/22 08:11:24;;;;;;;8.77;7.87;;;;;;;-142.65;82.49;50164.81;5113550;28;20272;-73
2022/09/22 08:13:54;;;;;;;9.43;8.70;;;;;;;-142.65;82.06;50162.81;5113628;28;20685;-73
2022/09/22 08:16:21;;;;;;;15.67;8.30;;;;;;;;;;5113623;28;20188;-73
2022/09/22 08:18:49;;;;;;;16.57;7.40;;;;;;;-142.65;81.25;50174.75;5113763;28;20258;-72
2022/09/22 08:21:18;;;;;;;8.00;7.43;;;;;;;-142.65;80.47;50170.78;5114171;28;20173;-72
2022/09/22 08:23:44;;;;;;;10.53;7.70;;;;;;;;;;5113812;28;20192;-72
2022/09/22 08:26:11;;;;;;;12.57;7.67;;;;;;;-142.65;78.13;50170.78;5095562;28;20185;-73
2022/09/22 08:28:37;;;;;;;7.87;6.37;;;;;;;-142.65;77.34;50168.78;5113463;28;20204;-72
2022/09/22 08:31:10;;;;;;;6.83;6.50;;;;;;;;;;5095692;28;20177;-72
2022/09/22 08:33:38;;;;;;;6.67;6.27;;;;;;;-142.65;76.12;50174.75;5113564;28;20177;-72
2022/09/22 08:36:05;;;;;;;6.87;5.63;;;;;;;-142.65;75.71;50164.81;5113687;28;20189;-72
2022/09/22 08:38:32;;;;;;;6.23;5.60;;;;;;;;;;5113337;28;20578;-72
2022/09/22 08:41:27;;;;;;;6.63;6.43;;;;;;;-142.65;74.79;50172.78;5115876;28;20181;-72
2022/09/22 08:43:59;;;;;;;7.17;6.50;;;;;;;-142.65;74.89;50162.81;5117955;28;20543;-72
2022/09/22 08:46:29;;;;;;;7.53;6.83;;;;;;;;;;5117373;28;20184;-72
2022/09/22 08:52:37;;;;;;;7.80;7.13;;;;;;;-142.65;72.74;50164.81;5117392;28;20189;-72
2022/09/22 08:55:05;;;;;;;7.43;6.70;;;;;;;;;;5117478;28;20177;-72
2022/09/22 08:58:03;;;;;;;7.10;6.70;;;;;;;-142.65;72.82;50164.81;5117149;28;20196;-72
2022/09/22 09:00:34;;;;;;;7.50;6.90;;;;;;;;;;5113696;28;20221;-72
2022/09/22 09:03:41;;;;;;;6.43;5.97;;;;;;;-142.65;71.39;50170.78;5117336;28;20185;-72
2022/09/22 09:06:14;;;;;;;11.50;6.53;;;;;;;;;;5117030;28;20184;-72
2022/09/22 09:09:02;;;;;;;7.50;6.90;;;;;;;;;;5117216;28;20213;-72
2022/09/22 09:11:47;;;;;;;8.03;7.43;;;;;;;-142.65;70.63;50170.78;5116948;28;20712;-72
2022/09/22 09:14:44;;;;;;;9.43;8.57;;;;;;;-142.65;69.77;50168.78;5117082;28;20177;-72
2022/09/22 09:17:12;;;;;;;8.50;8.00;;;;;;;;;;5117347;28;20161;-72
2022/09/22 09:19:48;;;;;;;9.47;7.30;;;;;;;-142.65;70.08;50168.78;5116834;28;20213;-72
2022/09/22 09:22:23;;;;;;;6.73;6.47;;;;;;;-142.65;69.80;50170.78;5116927;28;20176;-72
2022/09/22 09:24:57;;;;;;;8.27;7.50;;;;;;;-142.65;69.16;50164.81;5116686;28;20183;-73
2022/09/22 09:27:48;;;;;;;7.13;6.80;;;;;;;-142.65;69.32;50164.81;5116456;28;20560;-73
2022/09/22 09:30:20;;;;;;;18.57;10.23;;;;;;;-142.65;67.46;50172.78;5116567;28;20174;-72
2022/09/22 09:32:51;;;;;;;10.80;9.90;;;;;;;-142.65;67.63;50162.81;5116741;28;20178;-72
2022/09/22 09:35:25;;;;;;;9.63;8.93;;;;;;;;;;5116394;28;20294;-72
2022/09/22 09:37:56;;;;;;;5.03;4.93;;;;;;;-142.65;66.86;50168.78;5116828;28;20230;-72
2022/09/22 09:40:23;;;;;;;4.47;4.17;;;;;;;-142.65;66.85;50162.81;5116539;28;20577;-72
2022/09/22 09:42:54;;;;;;;3.80;3.70;;;;;;;;;;5116291;28;20217;-72
2022/09/22 09:45:27;;;;;;;4.50;4.40;;;;;;;-142.65;64.25;50160.81;5116565;28;20174;-72
2022/09/22 09:48:19;;;;;;;4.07;3.97;;;;;;;-142.65;64.01;50164.81;5116332;28;20174;-72
2022/09/22 09:50:45;;;;;;;4.30;4.20;;;;;;;;;;5115807;28;20186;-72
2022/09/22 09:53:29;;;;;;;6.43;3.60;;;;;;;-142.65;61.76;50162.81;5116612;28;20204;-72
2022/09/22 09:55:56;;;;;;;3.03;2.93;;;;;;;-142.65;61.56;50118.97;5116061;28;20184;-72
2022/09/22 10:01:11;;;;;;;3.80;3.43;;;;;;;;;;5116168;28;20673;-72
2022/09/22 10:03:42;;;;;;;3.50;3.33;;;;;;;;;;5112528;28;20201;-72
2022/09/22 10:06:09;;;;;;;2.57;2.57;;;;;;;-142.65;60.09;50164.81;5096007;28;20178;-72
2022/09/22 10:08:46;;;;;;;2.60;2.60;;;;;;;-142.65;60.66;50162.81;5095327;28;20277;-72
2022/09/22 10:11:13;;;;;;;2.83;2.63;;;;;;;;;;5095389;28;20202;-73
2022/09/22 10:13:42;;;;;;;4.40;2.10;;;;;;;-142.65;59.84;50164.81;5095286;28;20197;-73
2022/09/22 10:16:19;;;;;;;2.13;2.03;;;;;;;-142.65;58.45;50164.81;5095256;28;20197;-73
2022/09/22 10:18:46;;;;;;;2.43;2.43;;;;;;;;;;5095368;28;20272;-73
2022/09/22 10:21:14;;;;;;;2.00;1.87;;;;;;;;;;5095075;28;20209;-73
2022/09/22 10:23:42;;;;;;;3.60;2.43;;;;;;;-142.65;57.69;50164.81;5095145;28;20192;-73
2022/09/22 10:26:17;;;;;;;3.53;2.20;;;;;;;-142.65;55.56;50162.81;5095300;28;20194;-73
2022/09/22 10:28:49;;;;;;;1.93;1.63;;;;;;;-142.65;56.87;50162.81;5094921;28;20210;-72
2022/09/22 10:31:23;;;;;;;1.80;1.80;;;;;;;-142.65;55.56;50162.81;5095273;28;20174;-72
2022/09/22 10:33:55;;;;;;;1.70;1.60;;;;;;;;;;5095304;28;20718;-73
2022/09/22 10:36:24;;;;;;;1.47;1.47;;;;;;;-142.65;56.82;50162.81;5094882;28;20359;-73
2022/09/22 10:38:52;;;;;;;1.40;1.40;;;;;;;;;;5094927;28;20206;-72
2022/09/22 10:41:32;;;;;;;1.13;1.13;;;;;;;-142.65;55.20;50170.78;5095113;28;20170;-72
2022/09/22 10:44:00;;;;;;;1.30;1.30;;;;;;;;;;5094927;28;20184;-73
2022/09/22 10:47:05;;;;;;;1.20;1.20;;;;;;;-142.65;53.86;50162.81;5094942;28;20182;-73
2022/09/22 10:49:50;;;;;;;1.67;1.57;;;;;;;-142.65;51.91;50170.78;5094849;28;20202;-73
2022/09/22 10:52:40;;;;;;;1.33;1.33;;;;;;;-142.65;53.00;50168.78;5094878;28;20528;-73
2022/09/22 10:55:27;;;;;;;1.10;1.10;;;;;;;-142.65;53.04;50170.78;5094838;28;20548;-73
2022/09/22 10:58:08;;;;;;;1.20;1.20;;;;;;;;;;5094781;28;20181;-73
2022/09/22 11:00:37;;;;;;;1.50;1.50;;;;;;;-142.65;51.74;50164.81;5094642;28;20198;-73
2022/09/22 11:03:26;;;;;;;1.60;1.60;;;;;;;-142.65;52.25;50164.81;5093909;28;20538;-73
2022/09/22 11:12:16;;;;;;;1.60;1.60;;;;;;;-142.65;51.84;50170.78;5094414;28;20541;-72
2022/09/22 11:15:06;;;;;;;3.40;1.40;;;;;;;-142.65;52.03;50164.81;5094205;28;20616;-73
2022/09/22 11:17:40;;;;;;;1.90;1.40;;;;;;;-142.65;52.16;50168.78;5094387;28;20178;-72
2022/09/22 11:20:37;;;;;;;1.83;1.60;;;;;;;-142.65;50.57;50160.81;5094236;28;20193;-73
2022/09/22 11:23:30;;;;;;;1.43;1.43;;;;;;;;;;5093937;28;20195;-73
2022/09/22 11:26:21;;;;;;;2.97;1.30;;;;;;;-142.65;52.44;50162.81;5093948;28;20178;-73
2022/09/22 11:29:24;;;;;;;4.00;1.23;;;;;;;-142.65;51.88;50162.81;5094085;28;20576;-72
2022/09/22 11:32:26;;;;;;;1.20;1.20;;;;;;;-142.65;48.53;50162.81;5093775;28;20193;-72
2022/09/22 11:35:39;;;;;;;1.10;1.10;;;;;;;-142.65;48.95;50170.78;5075744;28;20197;-72
2022/09/22 11:38:42;;;;;;;1.20;1.20;;;;;;;-142.65;49.54;50162.81;5093569;28;20206;-72
2022/09/22 11:41:16;;;;;;;2.90;1.27;;;;;;;-142.65;47.20;50168.78;5092629;28;20559;-72
2022/09/22 11:44:02;;;;;;;1.20;1.20;;;;;;;-142.65;47.98;50168.78;5094180;28;20535;-72
2022/09/22 11:46:42;;;;;;;1.37;1.33;;;;;;;-142.65;46.77;50164.81;5093935;28;20181;-73
2022/09/22 11:49:36;;;;;;;1.73;1.73;;;;;;;-142.65;46.43;50170.78;5093841;28;20221;-73
2022/09/22 11:52:31;;;;;;;1.30;1.30;;;;;;;-142.65;47.91;50170.78;5094674;28;20166;-73
2022/09/22 11:55:22;;;;;;;1.40;1.40;;;;;;;-142.65;48.78;50164.81;5093835;28;20197;-73
2022/09/22 11:57:53;;;;;;;1.60;1.60;;;;;;;-142.65;47.44;50164.81;5093400;28;20182;-72
2022/09/22 12:00:20;;;;;;;1.80;1.80;;;;;;;-142.65;47.57;50162.81;5093358;28;20213;-72
2022/09/22 12:02:50;;;;;;;1.10;1.10;;;;;;;;;;5093372;28;20249;-73
2022/09/22 12:05:29;;;;;;;1.30;1.30;;;;;;;-142.65;49.60;50168.78;5094002;28;20629;-73